Time;durP1;ratioP1;P1;durP2;ratioP2;P2;SDS_P1;SDS_P2;PMS_P1;PMS_P2;Temp;Humidity;BMP_temperature;BMP_pressure;BME280_temperature;BME280_humidity;BME280_pressure;Samples;Min_cycle;Max_cycle;Signal;HPM_P1;HPM_P2
2022/10/19 00:03:00;;;;;;;1.58;0.88;;;18.00;66.10;;;;;;10351532;28;20026;-61
2022/10/19 00:08:01;;;;;;;2.15;0.98;;;18.00;66.00;;;;;;10373406;28;20502;-61
2022/10/19 00:13:02;;;;;;;3.42;1.05;;;18.00;66.00;;;;;;10383423;28;20010;-61
2022/10/19 00:18:03;;;;;;;1.73;0.77;;;17.90;65.80;;;;;;10372108;28;20054;-61
2022/10/19 00:23:03;;;;;;;3.33;0.80;;;17.90;65.90;;;;;;10367883;28;20454;-61
2022/10/19 00:28:04;;;;;;;3.17;0.95;;;17.90;65.90;;;;;;10350599;28;20037;-61
2022/10/19 00:33:05;;;;;;;1.85;1.35;;;17.90;65.90;;;;;;10336589;28;20056;-62
2022/10/19 00:38:05;;;;;;;4.07;1.40;;;17.90;65.80;;;;;;10366006;28;20112;-61
2022/10/19 00:43:22;;;;;;;3.55;0.70;;;17.90;65.70;;;;;;10366097;28;20133;-61
2022/10/19 00:48:32;;;;;;;1.38;0.75;;;17.90;65.50;;;;;;10365860;28;20537;-61
2022/10/19 00:53:34;;;;;;;1.85;0.95;;;17.90;65.40;;;;;;10360601;28;20365;-61
2022/10/19 00:58:35;;;;;;;2.45;0.95;;;17.90;65.60;;;;;;10378826;28;20100;-61
2022/10/19 01:03:37;;;;;;;2.47;0.93;;;17.80;65.30;;;;;;10365320;28;20017;-62
2022/10/19 01:08:37;;;;;;;1.25;0.68;;;17.80;65.40;;;;;;10374166;28;20025;-61
2022/10/19 01:13:56;;;;;;;2.22;0.85;;;17.80;65.30;;;;;;10366531;28;20030;-62
2022/10/19 01:19:30;;;;;;;2.78;0.93;;;17.80;65.30;;;;;;10365850;28;20052;-62
2022/10/19 01:25:14;;;;;;;3.90;1.00;;;17.80;65.20;;;;;;10364853;28;20120;-62
2022/10/19 01:30:45;;;;;;;2.10;0.88;;;17.80;64.90;;;;;;10355395;28;20025;-61
2022/10/19 01:36:07;;;;;;;1.52;0.80;;;17.80;64.80;;;;;;10373799;28;20556;-62
2022/10/19 01:41:42;;;;;;;2.25;0.90;;;17.80;65.00;;;;;;10365306;28;20725;-62
2022/10/19 01:46:53;;;;;;;1.80;0.80;;;17.80;64.90;;;;;;10365409;28;20087;-61
2022/10/19 01:52:00;;;;;;;4.40;1.65;;;17.70;64.70;;;;;;10363943;28;20030;-62
2022/10/19 01:57:06;;;;;;;4.40;0.75;;;17.70;64.70;;;;;;10364157;28;20101;-61
2022/10/19 02:02:08;;;;;;;1.48;0.65;;;17.70;64.50;;;;;;10364022;28;20084;-61
2022/10/19 02:07:10;;;;;;;4.13;1.30;;;17.70;64.60;;;;;;10362486;28;20712;-61
2022/10/19 02:12:12;;;;;;;1.73;0.80;;;17.70;64.60;;;;;;10386269;28;20680;-61
2022/10/19 02:17:19;;;;;;;1.50;0.65;;;17.70;64.50;;;;;;10362972;28;20061;-61
2022/10/19 02:22:20;;;;;;;2.90;1.20;;;17.70;64.40;;;;;;10376265;28;20165;-61
2022/10/19 02:27:21;;;;;;;2.05;0.60;;;17.70;64.40;;;;;;10364011;28;20117;-62
2022/10/19 02:32:22;;;;;;;4.53;1.20;;;17.60;64.20;;;;;;10379144;28;20695;-61
2022/10/19 02:37:23;;;;;;;3.45;0.80;;;17.60;64.20;;;;;;10373159;28;20854;-61
2022/10/19 02:42:37;;;;;;;2.42;0.88;;;17.60;64.20;;;;;;10361898;28;20053;-62
2022/10/19 02:47:49;;;;;;;2.28;1.05;;;17.60;64.10;;;;;;10362405;28;20081;-61
2022/10/19 02:52:50;;;;;;;2.65;0.80;;;17.60;64.10;;;;;;10362477;28;20029;-61
2022/10/19 02:57:51;;;;;;;3.03;0.93;;;17.60;64.10;;;;;;10363407;28;20030;-61
2022/10/19 03:02:51;;;;;;;2.05;1.55;;;17.60;63.90;;;;;;10362360;28;20054;-62
2022/10/19 03:07:52;;;;;;;0.95;0.60;;;17.60;64.00;;;;;;10378842;28;20505;-61
2022/10/19 03:12:52;;;;;;;1.85;0.70;;;17.50;64.00;;;;;;10369689;28;20054;-61
2022/10/19 03:17:54;;;;;;;1.77;0.70;;;17.60;63.90;;;;;;10366118;28;20076;-61
2022/10/19 03:22:55;;;;;;;2.33;0.70;;;17.50;63.80;;;;;;10383023;28;20029;-61
2022/10/19 03:27:55;;;;;;;1.90;0.85;;;17.50;63.80;;;;;;10370767;28;20458;-61
2022/10/19 03:32:56;;;;;;;2.83;0.75;;;17.50;63.70;;;;;;10385519;28;20441;-62
2022/10/19 03:37:56;;;;;;;4.70;1.60;;;17.50;63.80;;;;;;10369054;28;20108;-61
2022/10/19 03:42:57;;;;;;;1.83;0.63;;;17.50;63.80;;;;;;10384691;28;20073;-61
2022/10/19 03:47:58;;;;;;;2.28;0.80;;;17.50;63.90;;;;;;10369751;28;20120;-61
2022/10/19 03:52:58;;;;;;;2.13;0.77;;;17.50;63.90;;;;;;10369518;28;20136;-62
2022/10/19 03:57:59;;;;;;;2.70;0.77;;;17.50;63.60;;;;;;10368155;28;20121;-62
2022/10/19 04:03:00;;;;;;;2.28;0.63;;;17.40;63.70;;;;;;10368815;28;20122;-61
2022/10/19 04:08:00;;;;;;;2.25;0.80;;;17.40;63.80;;;;;;10372003;28;20862;-61
2022/10/19 04:13:01;;;;;;;2.03;0.90;;;17.40;64.00;;;;;;10382758;28;20079;-61
2022/10/19 04:18:02;;;;;;;1.77;0.93;;;17.40;64.00;;;;;;10371785;28;20046;-61
2022/10/19 04:23:02;;;;;;;1.98;0.93;;;17.40;63.60;;;;;;10350907;28;20430;-61
2022/10/19 04:28:03;;;;;;;1.65;1.20;;;17.40;64.00;;;;;;10366204;28;20616;-62
2022/10/19 04:33:04;;;;;;;2.15;1.02;;;17.40;64.00;;;;;;10366459;28;20045;-61
2022/10/19 04:38:04;;;;;;;1.65;0.50;;;17.30;63.80;;;;;;10366431;28;20024;-61
2022/10/19 04:43:05;;;;;;;2.13;0.88;;;17.30;63.70;;;;;;10365857;28;20048;-62
2022/10/19 04:48:06;;;;;;;2.65;0.80;;;17.30;63.80;;;;;;10366248;28;20034;-62
2022/10/19 04:53:06;;;;;;;1.63;0.70;;;17.30;63.90;;;;;;10367210;28;20050;-62
2022/10/19 04:58:07;;;;;;;1.80;0.90;;;17.30;63.90;;;;;;10366079;28;20109;-61
2022/10/19 05:03:08;;;;;;;2.65;0.93;;;17.30;64.20;;;;;;10363988;28;20018;-64
2022/10/19 05:08:10;;;;;;;2.28;0.90;;;17.30;64.60;;;;;;10366225;28;20025;-61
2022/10/19 05:13:10;;;;;;;2.72;0.82;;;17.30;65.00;;;;;;10366221;28;20397;-61
2022/10/19 05:18:11;;;;;;;7.88;1.40;;;17.40;65.20;;;;;;10378578;28;20125;-65
2022/10/19 05:23:12;;;;;;;6.30;1.40;;;17.40;65.40;;;;;;10364991;28;20466;-60
2022/10/19 05:28:12;;;;;;;9.60;2.28;;;17.40;65.90;;;;;;10366177;28;20703;-60
2022/10/19 05:33:13;;;;;;;12.00;1.73;;;17.40;66.20;;;;;;10363759;28;20057;-61
2022/10/19 05:38:14;;;;;;;5.88;1.75;;;17.40;66.50;;;;;;10365084;28;20105;-62
2022/10/19 05:43:14;;;;;;;12.65;1.92;;;17.40;66.40;;;;;;10363398;28;20137;-62
2022/10/19 05:48:15;;;;;;;7.80;2.78;;;17.40;65.80;;;;;;10365436;28;20057;-62
2022/10/19 05:53:15;;;;;;;8.68;1.60;;;17.40;66.20;;;;;;10365074;28;20446;-62
2022/10/19 05:58:16;;;;;;;10.40;1.73;;;17.40;66.30;;;;;;10355154;28;20018;-61
2022/10/19 06:03:17;;;;;;;5.82;1.55;;;17.30;65.90;;;;;;10361036;28;20030;-61
2022/10/19 06:08:19;;;;;;;8.50;1.83;;;17.30;65.70;;;;;;10371357;28;20117;-61
2022/10/19 06:13:20;;;;;;;16.55;2.08;;;17.30;65.60;;;;;;10365551;28;20034;-62
2022/10/19 06:18:24;;;;;;;5.50;1.25;;;17.30;65.50;;;;;;10362314;28;20121;-60
2022/10/19 06:23:25;;;;;;;6.03;1.40;;;17.30;65.80;;;;;;10364203;28;20022;-61
2022/10/19 06:28:25;;;;;;;5.72;1.92;;;17.30;65.90;;;;;;10362571;28;20030;-61
2022/10/19 06:33:27;;;;;;;7.60;1.65;;;17.20;65.30;;;;;;10361690;28;20010;-61
2022/10/19 06:38:27;;;;;;;7.95;1.33;;;17.20;65.10;;;;;;10362963;28;20140;-61
2022/10/19 06:43:28;;;;;;;5.15;1.58;;;17.20;64.60;;;;;;10363295;28;20073;-61
2022/10/19 06:48:29;;;;;;;7.82;1.73;;;17.20;64.90;;;;;;10359396;28;20164;-61
2022/10/19 06:53:33;;;;;;;10.95;2.80;;;17.20;65.40;;;;;;10364298;28;20121;-61
2022/10/19 06:58:38;;;;;;;4.35;1.33;;;17.20;65.60;;;;;;10370145;28;20018;-61
2022/10/19 07:03:39;;;;;;;8.50;2.90;;;17.20;65.50;;;;;;10369612;28;20042;-61
2022/10/19 07:08:41;;;;;;;10.57;1.73;;;17.20;65.50;;;;;;10377989;28;20036;-61
2022/10/19 07:13:42;;;;;;;4.05;1.27;;;17.20;65.50;;;;;;10370219;28;20087;-61
2022/10/19 07:18:43;;;;;;;8.05;2.00;;;17.20;65.60;;;;;;10374622;28;20033;-61
2022/10/19 07:23:48;;;;;;;14.82;4.10;;;17.10;65.50;;;;;;10384605;28;20058;-61
2022/10/19 07:28:50;;;;;;;10.60;1.95;;;17.10;66.20;;;;;;10373338;28;20646;-62
2022/10/19 07:33:56;;;;;;;14.23;2.75;;;17.10;65.60;;;;;;10377621;28;20046;-62
2022/10/19 07:38:57;;;;;;;10.60;2.10;;;17.10;65.80;;;;;;10377358;28;20641;-61
2022/10/19 07:43:58;;;;;;;11.45;1.95;;;17.10;65.70;;;;;;10373819;28;20045;-61
2022/10/19 07:49:05;;;;;;;22.85;3.60;;;17.10;65.80;;;;;;10367121;28;20072;-64
2022/10/19 07:54:06;;;;;;;13.02;2.78;;;17.10;65.70;;;;;;10364404;28;20056;-66
2022/10/19 07:59:08;;;;;;;8.73;2.90;;;17.10;65.80;;;;;;10365980;28;20076;-67
2022/10/19 08:04:09;;;;;;;7.82;1.95;;;17.10;65.90;;;;;;10365000;28;20033;-67
2022/10/19 08:09:10;;;;;;;10.35;3.35;;;17.10;65.90;;;;;;10373908;28;20026;-66
2022/10/19 08:14:11;;;;;;;6.57;1.92;;;17.10;65.80;;;;;;10363870;28;20022;-66
2022/10/19 08:19:14;;;;;;;4.85;1.80;;;17.10;66.40;;;;;;10365543;28;20105;-69
2022/10/19 08:24:19;;;;;;;15.07;4.15;;;17.10;65.80;;;;;;10364313;28;20058;-66
2022/10/19 08:29:20;;;;;;;8.82;2.20;;;17.10;65.80;;;;;;10387578;28;20107;-66
2022/10/19 08:34:21;;;;;;;9.85;2.03;;;17.10;65.90;;;;;;10365621;28;20032;-68
2022/10/19 08:39:22;;;;;;;7.63;2.50;;;17.10;65.90;;;;;;10379883;28;20028;-67
2022/10/19 08:44:54;;;;;;;4.50;1.75;;;17.10;66.00;;;;;;10378038;28;20488;-66
2022/10/19 08:49:56;;;;;;;8.02;2.45;;;17.20;66.00;;;;;;10381509;28;20495;-67
2022/10/19 08:55:01;;;;;;;6.70;2.53;;;17.20;66.10;;;;;;10364874;28;20022;-66
2022/10/19 09:00:32;;;;;;;4.70;1.90;;;17.20;66.10;;;;;;10365177;28;20124;-66
2022/10/19 09:05:38;;;;;;;7.05;1.60;;;17.20;66.10;;;;;;10363584;28;20108;-66
2022/10/19 09:10:43;;;;;;;7.25;1.40;;;17.20;66.20;;;;;;10367096;28;20044;-66
2022/10/19 09:15:49;;;;;;;5.10;1.42;;;17.30;66.20;;;;;;10361488;28;20505;-64
2022/10/19 09:21:08;;;;;;;4.93;1.65;;;17.30;66.20;;;;;;10368695;28;20136;-67
2022/10/19 09:26:19;;;;;;;5.80;3.22;;;17.30;66.20;;;;;;10364123;28;20054;-65
2022/10/19 09:31:32;;;;;;;5.75;1.75;;;17.40;66.40;;;;;;10362650;28;20030;-65
2022/10/19 09:36:40;;;;;;;7.65;1.90;;;17.40;66.50;;;;;;10363754;28;20025;-66
2022/10/19 09:42:06;;;;;;;10.70;2.55;;;17.40;66.60;;;;;;10362879;28;20058;-66
2022/10/19 09:47:16;;;;;;;9.80;2.13;;;17.50;66.30;;;;;;10363182;28;20756;-67
2022/10/19 09:52:37;;;;;;;8.90;2.25;;;17.50;65.90;;;;;;10378028;28;20029;-68
2022/10/19 09:57:43;;;;;;;9.23;2.92;;;17.50;65.80;;;;;;10362483;28;20041;-67
2022/10/19 10:02:54;;;;;;;12.68;2.22;;;17.60;65.50;;;;;;10362236;28;20066;-66
2022/10/19 10:07:55;;;;;;;17.17;4.28;;;17.50;65.70;;;;;;10345856;28;20037;-68
2022/10/19 10:12:58;;;;;;;20.65;5.28;;;17.60;66.50;;;;;;10362953;28;20019;-69
2022/10/19 10:17:59;;;;;;;19.90;4.70;;;17.60;66.50;;;;;;10364758;28;20500;-66
2022/10/19 10:23:05;;;;;;;16.13;6.43;;;17.60;66.20;;;;;;10361788;28;20025;-65
2022/10/19 10:28:27;;;;;;;16.85;6.68;;;17.60;66.00;;;;;;10366404;28;20029;-66
2022/10/19 10:33:30;;;;;;;16.05;5.07;;;17.70;66.10;;;;;;10365155;28;20037;-68
2022/10/19 10:38:39;;;;;;;15.57;4.60;;;17.70;65.60;;;;;;10371069;28;20026;-66
2022/10/19 10:44:05;;;;;;;;;;;17.70;65.90;;;;;;10371646;28;20050;-64
2022/10/19 10:49:18;;;;;;;7.07;3.45;;;17.70;65.90;;;;;;10388052;28;20351;-69
2022/10/19 10:54:27;;;;;;;8.82;3.17;;;17.70;66.60;;;;;;10367547;28;20026;-69
2022/10/19 11:00:16;;;;;;;9.75;3.22;;;17.80;66.80;;;;;;10367502;28;20014;-67
2022/10/19 11:05:52;;;;;;;6.60;3.25;;;17.80;67.10;;;;;;10341830;28;20050;-66
2022/10/19 11:11:00;;;;;;;8.00;3.13;;;17.80;67.20;;;;;;10372891;28;20025;-66
2022/10/19 11:16:17;;;;;;;11.07;3.38;;;17.80;68.10;;;;;;10385168;28;20025;-66
2022/10/19 11:21:50;;;;;;;9.63;3.03;;;17.80;68.00;;;;;;10367431;28;20022;-66
2022/10/19 11:26:58;;;;;;;7.30;2.97;;;17.80;67.60;;;;;;10367525;28;20014;-64
2022/10/19 11:31:59;;;;;;;10.85;2.47;;;17.80;67.60;;;;;;10373513;28;20026;-64
2022/10/19 11:37:19;;;;;;;6.85;2.58;;;17.80;67.60;;;;;;10387387;28;20037;-64
2022/10/19 11:42:59;;;;;;;6.93;2.60;;;17.80;67.50;;;;;;10378975;28;20068;-64
2022/10/19 11:48:38;;;;;;;6.55;1.88;;;17.80;67.50;;;;;;10368349;28;20038;-64
2022/10/19 11:54:23;;;;;;;7.80;2.10;;;17.80;67.50;;;;;;10368293;28;20053;-65
2022/10/19 12:00:00;;;;;;;5.20;1.50;;;17.80;67.60;;;;;;10346318;28;20124;-65
2022/10/19 12:05:09;;;;;;;6.55;2.05;;;17.80;67.60;;;;;;10369423;28;20061;-65
2022/10/19 12:10:42;;;;;;;5.35;1.58;;;17.80;67.60;;;;;;10367638;28;20057;-65
2022/10/19 12:15:48;;;;;;;5.43;1.38;;;17.80;67.50;;;;;;10367409;28;20017;-66
2022/10/19 12:20:52;;;;;;;7.72;1.98;;;17.80;67.60;;;;;;10380283;28;20667;-62
2022/10/19 12:25:56;;;;;;;9.20;2.80;;;17.80;67.60;;;;;;10366467;28;20117;-61
2022/10/19 12:30:59;;;;;;;13.50;1.92;;;17.80;67.70;;;;;;10368057;28;20022;-65
2022/10/19 12:36:18;;;;;;;9.35;2.53;;;17.80;67.90;;;;;;10365828;28;20408;-62
2022/10/19 12:41:44;;;;;;;22.25;2.53;;;17.90;67.90;;;;;;10352521;28;20591;-63
2022/10/19 12:46:59;;;;;;;18.90;3.28;;;17.90;68.60;;;;;;10365582;28;20030;-63
2022/10/19 12:52:01;;;;;;;17.63;3.20;;;18.00;69.00;;;;;;10364837;28;20026;-64
2022/10/19 12:57:17;;;;;;;11.35;2.38;;;18.00;69.10;;;;;;10364882;28;20029;-61
2022/10/19 13:02:32;;;;;;;13.20;2.65;;;18.00;69.00;;;;;;10364675;28;20037;-63
2022/10/19 13:07:34;;;;;;;15.23;2.95;;;18.00;69.10;;;;;;10366210;28;20520;-63
2022/10/19 13:12:45;;;;;;;18.25;3.42;;;18.00;69.20;;;;;;10374506;28;20076;-64
2022/10/19 13:17:47;;;;;;;18.75;2.97;;;18.00;69.50;;;;;;10347999;28;20473;-65
2022/10/19 13:23:10;;;;;;;19.58;3.20;;;18.00;69.20;;;;;;10365009;28;20097;-64
2022/10/19 13:28:16;;;;;;;21.50;3.17;;;18.00;69.00;;;;;;10361543;28;20038;-65
2022/10/19 13:33:32;;;;;;;26.38;4.13;;;18.00;69.40;;;;;;10361289;28;20037;-66
2022/10/19 13:38:38;;;;;;;14.65;4.63;;;17.90;69.20;;;;;;10362419;28;20045;-65
2022/10/19 13:44:10;;;;;;;20.80;3.67;;;18.00;68.70;;;;;;10361147;28;20713;-65
2022/10/19 13:49:30;;;;;;;16.90;4.47;;;18.00;68.80;;;;;;10364323;28;20673;-65
2022/10/19 13:54:55;;;;;;;22.65;5.40;;;17.90;68.40;;;;;;10359861;28;20537;-66
2022/10/19 14:00:14;;;;;;;10.82;2.10;;;17.90;68.20;;;;;;10363595;28;20045;-65
2022/10/19 14:05:44;;;;;;;11.70;3.33;;;17.90;67.50;;;;;;10362836;28;20030;-66
2022/10/19 14:10:57;;;;;;;15.23;2.53;;;17.80;67.30;;;;;;10364718;28;20018;-64
2022/10/19 14:16:01;;;;;;;16.48;2.83;;;17.80;67.00;;;;;;10363775;28;20105;-64
2022/10/19 14:21:08;;;;;;;8.07;1.90;;;17.80;67.10;;;;;;10362845;28;20128;-64
2022/10/19 14:26:19;;;;;;;14.07;3.08;;;17.80;67.10;;;;;;10364114;28;20033;-66
2022/10/19 14:31:24;;;;;;;18.83;4.38;;;17.70;66.80;;;;;;10362663;28;20181;-65
2022/10/19 14:36:33;;;;;;;10.85;2.35;;;17.70;67.00;;;;;;10375968;28;20029;-65
2022/10/19 14:41:35;;;;;;;8.23;1.95;;;17.60;67.70;;;;;;10363737;28;20046;-65
2022/10/19 14:46:36;;;;;;;7.68;1.77;;;17.60;67.40;;;;;;10361841;28;20026;-65
2022/10/19 14:51:56;;;;;;;6.75;1.70;;;17.60;67.50;;;;;;10362356;28;20017;-65
2022/10/19 14:57:10;;;;;;;7.78;1.63;;;17.60;67.70;;;;;;10361988;28;20042;-64
2022/10/19 15:02:31;;;;;;;8.48;1.88;;;17.50;67.60;;;;;;10361618;28;20104;-64
2022/10/19 15:07:39;;;;;;;9.55;2.25;;;17.50;67.80;;;;;;10363578;28;20034;-65
2022/10/19 15:12:42;;;;;;;10.55;2.05;;;17.50;67.80;;;;;;10361855;28;20018;-64
2022/10/19 15:18:01;;;;;;;22.88;3.60;;;17.50;69.60;;;;;;10368263;28;20021;-67
2022/10/19 15:23:35;;;;;;;8.65;2.00;;;17.60;68.90;;;;;;10385761;28;20030;-64
2022/10/19 15:28:37;;;;;;;11.52;3.05;;;17.60;67.60;;;;;;10369857;28;20042;-64
2022/10/19 15:33:53;;;;;;;13.48;3.20;;;17.50;67.80;;;;;;10369394;28;20022;-64
2022/10/19 15:38:56;;;;;;;5.18;2.17;;;17.50;68.10;;;;;;10369880;28;20109;-64
2022/10/19 15:43:59;;;;;;;17.27;3.13;;;17.50;68.10;;;;;;10367845;28;20060;-62
2022/10/19 15:49:15;;;;;;;13.93;2.85;;;17.40;68.60;;;;;;10357649;28;20545;-63
2022/10/19 15:54:18;;;;;;;12.07;2.60;;;18.00;73.00;;;;;;10368365;28;20112;-64
2022/10/19 15:59:20;;;;;;;490.15;282.95;;;18.00;71.80;;;;;;10360607;28;20022;-66
2022/10/19 16:04:21;;;;;;;105.03;50.35;;;18.00;72.00;;;;;;10367982;28;20112;-65
2022/10/19 16:09:22;;;;;;;88.65;40.42;;;17.90;73.70;;;;;;10367845;28;20079;-63
2022/10/19 16:14:25;;;;;;;72.38;30.95;;;17.90;73.20;;;;;;10366291;28;20097;-62
2022/10/19 16:19:25;;;;;;;65.18;29.92;;;17.90;72.90;;;;;;10368374;28;20457;-64
2022/10/19 16:24:26;;;;;;;67.05;27.98;;;17.90;72.50;;;;;;10378426;28;20018;-63
2022/10/19 16:29:27;;;;;;;67.60;27.67;;;18.00;72.60;;;;;;10367204;28;20067;-62
2022/10/19 16:34:27;;;;;;;64.15;26.25;;;18.00;72.40;;;;;;10366740;28;20041;-64
2022/10/19 16:39:28;;;;;;;64.75;27.02;;;17.90;72.60;;;;;;10379060;28;20026;-64
2022/10/19 16:44:29;;;;;;;63.90;27.17;;;18.00;72.70;;;;;;10365375;28;20099;-62
2022/10/19 16:49:30;;;;;;;60.33;24.70;;;18.00;72.40;;;;;;10363531;28;20058;-63
2022/10/19 16:54:31;;;;;;;46.47;22.88;;;18.00;72.20;;;;;;10376922;28;20057;-67
2022/10/19 16:59:32;;;;;;;61.78;24.98;;;17.90;72.20;;;;;;10362358;28;20464;-70
2022/10/19 17:04:33;;;;;;;58.80;21.85;;;17.90;72.50;;;;;;10378177;28;20151;-74
2022/10/19 17:09:33;;;;;;;63.05;22.10;;;17.90;73.10;;;;;;10374302;28;20033;-66
2022/10/19 17:14:38;;;;;;;57.35;21.15;;;17.80;72.70;;;;;;10362829;28;20029;-67
2022/10/19 17:19:39;;;;;;;69.32;22.77;;;17.80;73.00;;;;;;10380126;28;20523;-66
2022/10/19 17:24:40;;;;;;;57.60;20.60;;;17.80;73.70;;;;;;10364714;28;20104;-64
2022/10/19 17:29:41;;;;;;;52.58;19.50;;;17.80;73.40;;;;;;10376608;28;20017;-66
2022/10/19 17:34:41;;;;;;;52.95;19.25;;;17.80;73.50;;;;;;10364612;28;20026;-62
2022/10/19 17:39:42;;;;;;;55.20;18.50;;;17.80;73.70;;;;;;10364470;28;20117;-63
2022/10/19 17:44:43;;;;;;;43.25;15.13;;;17.80;73.70;;;;;;10363048;28;20176;-62
2022/10/19 17:49:43;;;;;;;44.67;16.58;;;17.80;73.30;;;;;;10361494;28;20102;-65
2022/10/19 17:54:44;;;;;;;42.65;16.52;;;17.80;72.90;;;;;;10364350;28;20543;-64
2022/10/19 17:59:44;;;;;;;41.53;14.70;;;17.80;73.00;;;;;;10348892;28;20022;-65
2022/10/19 18:04:45;;;;;;;36.17;14.88;;;17.80;73.00;;;;;;10363342;28;20417;-64
2022/10/19 18:09:46;;;;;;;35.15;14.48;;;17.70;72.80;;;;;;10367196;28;20018;-65
2022/10/19 18:14:47;;;;;;;36.63;13.48;;;17.60;71.80;;;;;;10369475;28;20018;-65
2022/10/19 18:19:47;;;;;;;29.10;12.43;;;17.60;71.90;;;;;;10358147;28;20057;-65
2022/10/19 18:24:48;;;;;;;30.20;12.82;;;17.60;71.70;;;;;;10362407;28;20113;-66
2022/10/19 18:29:49;;;;;;;25.70;12.50;;;17.60;71.90;;;;;;10370518;28;20110;-66
2022/10/19 18:34:49;;;;;;;23.00;11.88;;;17.60;71.80;;;;;;10348604;28;20026;-65
2022/10/19 18:39:50;;;;;;;26.67;12.43;;;17.60;71.70;;;;;;10358869;28;20101;-66
2022/10/19 18:44:51;;;;;;;20.63;12.18;;;17.60;71.60;;;;;;10357261;28;20113;-65
2022/10/19 18:49:53;;;;;;;26.00;11.77;;;17.60;71.70;;;;;;10361678;28;20385;-65
2022/10/19 18:54:54;;;;;;;26.75;10.85;;;17.60;71.50;;;;;;10370584;28;20037;-66
2022/10/19 18:59:54;;;;;;;17.77;8.30;;;17.60;71.50;;;;;;10380674;28;20034;-66
2022/10/19 19:04:55;;;;;;;20.33;9.13;;;17.60;71.40;;;;;;10366994;28;20088;-66
2022/10/19 19:09:56;;;;;;;17.05;9.00;;;17.50;71.30;;;;;;10368638;28;20539;-65
2022/10/19 19:14:56;;;;;;;22.48;9.07;;;17.50;71.20;;;;;;10369604;28;20060;-66
2022/10/19 19:19:57;;;;;;;24.42;8.85;;;17.50;71.20;;;;;;10369974;28;20515;-66
2022/10/19 19:24:58;;;;;;;16.45;8.32;;;17.50;71.20;;;;;;10368175;28;20064;-65
2022/10/19 19:29:59;;;;;;;17.88;8.95;;;17.50;71.20;;;;;;10382753;28;20025;-66
2022/10/19 19:35:00;;;;;;;17.98;8.30;;;17.40;71.30;;;;;;10367180;28;20483;-66
2022/10/19 19:40:00;;;;;;;13.13;8.65;;;17.40;71.30;;;;;;10365409;28;20837;-66
2022/10/19 19:45:01;;;;;;;15.82;8.00;;;17.40;71.30;;;;;;10367479;28;20112;-66
2022/10/19 19:50:02;;;;;;;18.30;8.40;;;17.40;71.40;;;;;;10365732;28;20145;-66
2022/10/19 19:55:03;;;;;;;15.50;8.93;;;17.40;71.40;;;;;;10383609;28;20350;-66
2022/10/19 20:00:04;;;;;;;18.55;8.82;;;17.30;71.30;;;;;;10368721;28;20030;-66
2022/10/19 20:05:05;;;;;;;16.42;8.13;;;17.30;71.30;;;;;;10366685;28;20436;-66
2022/10/19 20:10:06;;;;;;;11.10;6.80;;;17.30;71.20;;;;;;10374947;28;20073;-65
2022/10/19 20:15:08;;;;;;;13.30;6.97;;;17.30;71.30;;;;;;10365795;28;20022;-65
2022/10/19 20:20:10;;;;;;;9.20;5.85;;;17.30;71.30;;;;;;10363690;28;20025;-65
2022/10/19 20:25:11;;;;;;;11.77;6.85;;;17.30;71.20;;;;;;10364647;28;20038;-65
2022/10/19 20:30:12;;;;;;;13.85;7.03;;;17.30;71.30;;;;;;10365506;28;20023;-66
2022/10/19 20:35:13;;;;;;;16.20;6.57;;;17.30;71.20;;;;;;10365930;28;20018;-66
2022/10/19 20:40:14;;;;;;;9.57;5.50;;;17.20;71.10;;;;;;10365556;28;20073;-65
2022/10/19 20:45:15;;;;;;;10.07;5.10;;;17.30;71.20;;;;;;10378942;28;20122;-66
2022/10/19 20:50:16;;;;;;;10.35;5.80;;;17.30;71.10;;;;;;10365425;28;20789;-65
2022/10/19 20:55:18;;;;;;;11.15;6.18;;;17.30;71.20;;;;;;10378230;28;20358;-65
2022/10/19 21:00:19;;;;;;;12.35;6.53;;;17.20;71.10;;;;;;10364839;28;20108;-65
2022/10/19 21:05:20;;;;;;;10.95;5.55;;;17.20;71.00;;;;;;10378063;28;20069;-65
2022/10/19 21:10:20;;;;;;;12.02;6.55;;;17.20;71.00;;;;;;10376071;28;20460;-65
2022/10/19 21:15:21;;;;;;;10.98;5.35;;;17.20;71.00;;;;;;10364050;28;20192;-66
2022/10/19 21:20:22;;;;;;;9.90;5.72;;;17.20;71.00;;;;;;10378030;28;20058;-66
2022/10/19 21:25:22;;;;;;;9.82;5.53;;;17.20;71.00;;;;;;10324287;28;20034;-65
2022/10/19 21:30:23;;;;;;;12.38;5.32;;;17.20;71.00;;;;;;10361931;28;20110;-65
2022/10/19 21:35:24;;;;;;;10.43;5.38;;;17.20;71.00;;;;;;10363794;28;20600;-65
2022/10/19 21:40:24;;;;;;;8.60;5.63;;;17.20;70.90;;;;;;10363338;28;20185;-66
2022/10/19 21:45:25;;;;;;;8.80;4.82;;;17.20;70.90;;;;;;10362730;28;20041;-66
2022/10/19 21:50:26;;;;;;;8.13;4.28;;;17.20;70.90;;;;;;10363230;28;20052;-67
2022/10/19 21:55:28;;;;;;;8.07;4.18;;;17.20;70.90;;;;;;10363900;28;20139;-66
2022/10/19 22:00:29;;;;;;;8.77;4.53;;;17.10;70.80;;;;;;10362484;28;20108;-65
2022/10/19 22:05:30;;;;;;;8.50;4.88;;;17.20;70.90;;;;;;10391948;28;20084;-65
2022/10/19 22:10:31;;;;;;;6.70;4.00;;;17.10;70.90;;;;;;10365209;28;20124;-65
2022/10/19 22:15:37;;;;;;;6.40;4.63;;;17.10;70.80;;;;;;10377143;28;20719;-66
2022/10/19 22:20:39;;;;;;;7.63;4.25;;;17.10;70.80;;;;;;10362746;28;20100;-66
2022/10/19 22:25:39;;;;;;;7.45;4.35;;;17.10;70.80;;;;;;10373454;28;20070;-65
2022/10/19 22:30:43;;;;;;;8.43;5.45;;;17.10;70.80;;;;;;10362545;28;20184;-65
2022/10/19 22:35:55;;;;;;;7.13;4.00;;;17.10;70.70;;;;;;10362586;28;20025;-65
2022/10/19 22:47:12;;;;;;;5.95;3.83;;;17.10;70.70;;;;;;10359126;28;20070;-65
2022/10/19 22:52:13;;;;;;;6.13;3.45;;;17.10;70.70;;;;;;10377672;28;20515;-65
2022/10/19 22:57:13;;;;;;;5.30;3.65;;;17.10;70.70;;;;;;10363678;28;20026;-65
2022/10/19 23:02:14;;;;;;;6.15;3.75;;;17.10;70.70;;;;;;10361571;28;20173;-65
2022/10/19 23:07:15;;;;;;;7.63;4.30;;;17.10;70.70;;;;;;10362513;28;20117;-64
2022/10/19 23:12:15;;;;;;;6.85;4.13;;;17.10;70.70;;;;;;10388287;28;20145;-64
2022/10/19 23:17:16;;;;;;;7.93;3.97;;;17.10;70.60;;;;;;10361781;28;20133;-65
2022/10/19 23:22:17;;;;;;;6.60;3.60;;;17.10;70.60;;;;;;10361788;28;20109;-65
2022/10/19 23:27:18;;;;;;;6.72;2.90;;;17.10;70.60;;;;;;10362888;28;20500;-65
2022/10/19 23:32:19;;;;;;;7.45;3.67;;;17.10;70.60;;;;;;10362604;28;20659;-65
2022/10/19 23:37:20;;;;;;;5.60;3.17;;;17.00;70.60;;;;;;10369024;28;20025;-65
2022/10/19 23:42:20;;;;;;;3.55;2.38;;;17.00;70.50;;;;;;10394517;28;20045;-65
2022/10/19 23:47:21;;;;;;;5.45;3.20;;;17.00;70.50;;;;;;10370283;28;20026;-65
2022/10/19 23:52:22;;;;;;;4.88;2.83;;;17.00;70.50;;;;;;10367337;28;20026;-65
2022/10/19 23:57:22;;;;;;;6.88;2.80;;;17.00;70.50;;;;;;10367241;28;20053;-65
